EDSB/FKB METAR and TAF weather

Enter ICAO airport designator
Station Type Date Time Source
EDSB METAR 2021/09/24 02:20 UTC NOAA

EDSB 240220Z AUTO 00000KT 9999 0650 R21/0700N NCD 11/10 Q1019


Station Type Date Time Source
EDSB Decoded METAR 2021/09/24 02:20 UTC NOAA

Karlsruhe, Baden Wurttemberg, Germany (EDSB) 48-46-43N 008-04-47E
Sep 23, 2021 - 10:20 PM EDT / 2021.09.24 0220 UTC
Wind: Calm:0
Visibility: greater than 7 mile(s):0
Temperature: 51 F (11 C)
Dew Point: 50 F (10 C)
Relative Humidity: 93%
Pressure (altimeter): 30.09 in. Hg (1019 hPa)
ob: EDSB 240220Z AUTO 00000KT 9999 0650 R21/0700N NCD 11/10 Q1019
cycle: 2

Station Type Date Time Source
EDSB TAF 2021/09/23 18:27 UTC NOAA

TAF EDSB 231700Z 2318/2418 22005KT CAVOK PROB30
TEMPO 2402/2406 1000 BCFG

Example: see airport list